Flight Track Log - Related Links

Times and Time Zones

All times are in EDT time to prevent confusion due to time zone crossing. See the UAL1718 flight status page for this flight to view local times or setup timezone preferences in your user account.

Time Position Orientation Groundspeed Altitude Reporting Facility
EDT Latitude Longitude Course Direction KTS MPH feet Rate Location/Type
Mon 01:51:27 AM 47.4700 -122.3075 357° North 167 192 1,500  Level Seattle Center
Mon 01:51:45 AM 47.4858 -122.3086 357° North 167 192 1,800 933 Climbing Seattle Center
Mon 01:52:12 AM 47.5067 -122.3081 North 185 213 2,200 1,705 Climbing Seattle Center
Mon 01:53:13 AM 47.5814 -122.3142 357° North 253 291 4,300 2,331 Climbing Seattle Center
Mon 01:54:13 AM 47.6028 -122.4158 287° West 285 328 6,900 2,500 Climbing Seattle Center
Mon 01:55:13 AM 47.5378 -122.4603 205° Southwest 289 333 9,300 2,033 Climbing Seattle Center
Mon 01:56:14 AM 47.5003 -122.3617 119° Southeast 285 328 11,000 1,438 Climbing Seattle Center
Mon 01:57:14 AM 47.4678 -122.2303 110° East 340 391 12,200 1,736 Climbing Seattle Center
Mon 01:58:15 AM 47.4367 -122.0853 108° East 366 421 14,500 1,983 Climbing Seattle Center
Mon 01:59:15 AM 47.4325 -121.9325 92° East 372 428 16,200 1,835 Climbing Seattle Center
Mon 02:00:16 AM 47.4297 -121.7856 92° East 399 459 18,200 1,835 Climbing Seattle Center
Mon 02:01:16 AM 47.4158 -121.6239 97° East 406 467 19,900 1,550 Climbing Seattle Center
Mon 02:02:16 AM 47.3967 -121.4628 100° East 405 466 21,300 1,488 Climbing Seattle Center
Mon 02:03:17 AM 47.3808 -121.2919 98° East 420 483 22,900 1,736 Climbing Seattle Center
Mon 02:04:17 AM 47.3628 -121.1247 99° East 418 481 24,800 1,339 Climbing Seattle Center
Mon 02:05:18 AM 47.3444 -120.9533 99° East 429 494 25,600 893 Climbing Seattle Center
Mon 02:06:18 AM 47.3225 -120.7522 99° East 436 502 26,600 1,200 Climbing Seattle Center
Mon 02:07:18 AM 47.3025 -120.5756 99° East 439 505 28,000 1,240 Climbing Seattle Center
Mon 02:08:19 AM 47.2842 -120.4011 99° East 434 499 29,100 1,091 Climbing Seattle Center
Mon 02:09:19 AM 47.2628 -120.2275 100° East 432 497 30,200 1,041 Climbing Seattle Center
Mon 02:10:20 AM 47.2431 -120.0531 99° East 433 498 31,200 992 Climbing Seattle Center
Mon 02:11:20 AM 47.2231 -119.8808 100° East 430 495 32,200 900 Climbing Seattle Center
Mon 02:12:20 AM 47.2028 -119.7092 100° East 428 493 33,000 397 Climbing Seattle Center
Mon 02:13:21 AM 47.1814 -119.5383 100° East 427 491 33,000  Level Seattle Center
Mon 02:14:21 AM 47.1611 -119.3694 100° East 422 486 33,000  Level Seattle Center
Mon 02:15:21 AM 47.1403 -119.2003 100° East 422 486 33,000 -50 Level Seattle Center
Mon 02:16:22 AM 47.1186 -119.0300 101° East 426 490 32,900  Descending Seattle Center
Mon 02:17:22 AM 47.0981 -118.8636 100° East 418 481 33,000 50 Climbing Seattle Center
Mon 02:18:23 AM 47.0758 -118.6942 101° East 422 486 33,000  Level Seattle Center
Mon 02:19:23 AM 47.0544 -118.5289 101° East 418 481 33,000  Level Seattle Center
Mon 02:20:23 AM 47.0328 -118.3639 101° East 415 478 33,000 -50 Level Seattle Center
Mon 02:21:24 AM 47.0128 -118.2014 100° East 409 471 32,900  Descending Seattle Center
Mon 02:22:24 AM 46.9906 -118.0375 101° East 411 473 33,000 50 Climbing Seattle Center
Mon 02:23:25 AM 46.9681 -117.8722 101° East 416 479 33,000  Level Seattle Center
Mon 02:24:25 AM 46.9453 -117.7081 101° East 414 476 33,000 -50 Level Seattle Center
Mon 02:25:25 AM 46.9178 -117.5083 101° East 418 481 32,900  Descending Seattle Center
Mon 02:26:26 AM 46.8944 -117.3450 102° East 415 478 33,000 50 Climbing Seattle Center
Mon 02:27:26 AM 46.8719 -117.1842 102° East 410 472 33,000  Level Seattle Center
Mon 02:28:27 AM 46.8483 -117.0239 102° East 408 470 33,000  Level Seattle Center
Mon 02:29:27 AM 46.8258 -116.8600 101° East 411 473 33,000  Level Seattle Center
Mon 02:30:27 AM 46.8014 -116.7006 103° East 407 468 33,000  Level Seattle Center
Mon 02:31:28 AM 46.7778 -116.5369 102° East 412 474 33,000  Level Seattle Center
Mon 02:32:28 AM 46.7533 -116.3742 102° East 414 476 33,000 -50 Level Seattle Center
Mon 02:33:28 AM 46.7297 -116.2142 102° East 408 470 32,900  Descending Seattle Center
Mon 02:34:29 AM 46.7039 -116.0522 103° East 411 473 33,000 50 Climbing Seattle Center
Mon 02:35:29 AM 46.6794 -115.8917 102° East 409 471 33,000  Level Seattle Center
Mon 02:36:29 AM 46.6544 -115.7328 103° East 405 466 33,000 -50 Level Seattle Center
Mon 02:37:30 AM 46.6292 -115.5736 103° East 404 465 32,900  Descending Seattle Center
Mon 02:38:30 AM 46.6044 -115.4164 103° East 403 464 33,000  Climbing Seattle Center
Mon 02:39:01 AM 46.5886 -115.3211 104° East 404 465 32,900  Descending Salt Lake Center
Mon 02:40:02 AM 46.5675 -115.1853 103° East 403 464 33,000 50 Climbing Salt Lake Center
Mon 02:41:02 AM 46.5372 -114.9969 103° East 400 460 33,000  Level Salt Lake Center
Mon 02:42:02 AM 46.5111 -114.8406 104° East 401 461 33,000  Level Salt Lake Center
Mon 02:43:03 AM 46.4850 -114.6836 104° East 403 464 33,000  Level Salt Lake Center
Mon 02:44:03 AM 46.4586 -114.5275 104° East 401 461 33,000 -50 Level Salt Lake Center
Mon 02:45:04 AM 46.4322 -114.3703 104° East 404 465 32,900  Descending Salt Lake Center
Mon 02:46:04 AM 46.4058 -114.2144 104° East 402 463 33,000  Climbing Salt Lake Center
Mon 02:47:04 AM 46.3789 -114.0589 104° East 402 463 32,900  Descending Salt Lake Center
Mon 02:48:05 AM 46.3517 -113.9019 104° East 405 466 33,000 50 Climbing Salt Lake Center
Mon 02:49:05 AM 46.3247 -113.7475 104° East 400 460 33,000 -50 Level Salt Lake Center
Mon 02:50:05 AM 46.2967 -113.5931 105° East 399 459 32,900  Descending Salt Lake Center
Mon 02:51:06 AM 46.2689 -113.4378 104° East 402 463 33,000 50 Climbing Salt Lake Center
Mon 02:52:06 AM 46.2378 -113.2658 105° East 399 459 33,000  Level Salt Lake Center
Mon 02:53:07 AM 46.2106 -113.1292 106° East 397 457 33,000  Level Salt Lake Center
Mon 02:54:07 AM 46.1819 -112.9733 105° East 401 461 33,000  Level Salt Lake Center
Mon 02:55:07 AM 46.1539 -112.8167 104° East 402 463 33,000  Level Salt Lake Center
Mon 02:56:08 AM 46.1256 -112.6592 104° East 404 465 33,000  Level Salt Lake Center
Mon 02:57:08 AM 46.0967 -112.5028 105° East 405 466 33,000  Level Salt Lake Center
Mon 02:58:08 AM 46.0669 -112.3464 105° East 406 467 33,000  Level Salt Lake Center
Mon 02:59:09 AM 46.0364 -112.1900 106° East 407 468 33,000  Level Salt Lake Center
Mon 03:00:09 AM 46.0067 -112.0331 105° East 408 470 33,000  Level Salt Lake Center
Mon 03:01:10 AM 45.9772 -111.8756 105° East 409 471 33,000  Level Salt Lake Center
Mon 03:02:10 AM 45.9458 -111.7181 106° East 411 473 33,000  Level Salt Lake Center
Mon 03:03:10 AM 45.9147 -111.5611 106° East 410 472 33,000  Level Salt Lake Center
Mon 03:04:11 AM 45.8836 -111.4025 106° East 411 473 33,000  Level Salt Lake Center
Mon 03:05:11 AM 45.8522 -111.2422 106° East 413 475 33,000  Level Salt Lake Center
Mon 03:06:12 AM 45.8172 -111.0708 106° East 423 487 33,000  Level Salt Lake Center
Mon 03:07:12 AM 45.7836 -110.9047 106° East 426 490 33,000  Level Salt Lake Center
Mon 03:08:12 AM 45.7497 -110.7408 106° East 427 491 33,000  Level Salt Lake Center
Mon 03:09:13 AM 45.7150 -110.5758 107° East 434 499 33,000  Level Salt Lake Center
Mon 03:10:13 AM 45.6819 -110.4167 107° East 436 502 33,000  Level Salt Lake Center
Mon 03:11:14 AM 45.6419 -110.2281 107° East 441 507 33,000  Level Salt Lake Center
Mon 03:12:14 AM 45.6067 -110.0658 107° East 447 514 33,000  Level Salt Lake Center
Mon 03:13:14 AM 45.5728 -109.9014 106° East 450 518 33,000  Level Salt Lake Center
Mon 03:14:15 AM 45.5317 -109.7061 107° East 460 529 33,000  Level Salt Lake Center
Mon 03:15:15 AM 45.4947 -109.5403 108° East 457 526 33,000 150 Level Salt Lake Center
Mon 03:16:15 AM 45.4575 -109.3744 108° East 459 528 33,300 496 Climbing Salt Lake Center
Mon 03:17:16 AM 45.4219 -109.2106 107° East 453 521 34,000 843 Climbing Salt Lake Center
Mon 03:18:16 AM 45.3792 -109.0222 108° East 449 517 35,000 496 Climbing Salt Lake Center
Mon 03:19:17 AM 45.3433 -108.8636 108° East 441 507 35,000  Level Salt Lake Center
Mon 03:20:17 AM 45.3078 -108.7028 107° East 445 512 35,000  Level Salt Lake Center
Mon 03:21:17 AM 45.2658 -108.5147 108° East 446 513 35,000  Level Salt Lake Center
Mon 03:22:18 AM 45.2267 -108.3517 109° East 453 521 35,000  Level Salt Lake Center
Mon 03:23:18 AM 45.1886 -108.1883 108° East 455 524 35,000  Level Salt Lake Center
Mon 03:24:19 AM 45.1525 -108.0258 107° East 450 518 35,000  Level Salt Lake Center
Mon 03:25:19 AM 45.1047 -107.8328 109° East 459 528 35,000  Level Salt Lake Center
Mon 03:26:19 AM 45.0675 -107.6681 108° East 455 524 35,000  Level Salt Lake Center
Mon 03:27:20 AM 45.0275 -107.5044 109° East 457 526 35,000  Level Salt Lake Center
Mon 03:28:20 AM 44.9881 -107.3408 109° East 457 526 35,000  Level Salt Lake Center
Mon 03:29:20 AM 44.9425 -107.1531 109° East 453 521 35,000  Level Salt Lake Center
Mon 03:30:21 AM 44.9039 -106.9928 109° East 452 520 35,000  Level Salt Lake Center
Mon 03:31:21 AM 44.8633 -106.8314 109° East 456 525 35,000  Level Salt Lake Center
Mon 03:32:22 AM 44.8244 -106.6703 109° East 454 522 35,000  Level Salt Lake Center
Mon 03:33:22 AM 44.7772 -106.4822 109° East 456 525 35,000  Level Salt Lake Center
Mon 03:34:22 AM 44.7361 -106.3206 110° East 459 528 35,000  Level Salt Lake Center
Mon 03:35:23 AM 44.6950 -106.1594 110° East 459 528 35,000  Level Salt Lake Center
Mon 03:36:23 AM 44.6503 -105.9817 109° East 463 533 35,000  Level Salt Lake Center
Mon 03:37:10 AM 44.6186 -105.8614 110° East 463 533 35,000  Level Denver Center
Mon 03:38:11 AM 44.5692 -105.6717 110° East 464 534 35,000  Level Denver Center
Mon 03:39:11 AM 44.5264 -105.5097 110° East 463 533 35,000  Level Denver Center
Mon 03:40:12 AM 44.4869 -105.3608 110° East 462 532 35,000  Level Denver Center
Mon 03:41:12 AM 44.4386 -105.1728 110° East 460 529 35,000  Level Denver Center
Mon 03:42:12 AM 44.3942 -105.0131 111° Southeast 460 529 35,000  Level Denver Center
Mon 03:43:13 AM 44.3453 -104.8250 110° East 461 531 35,000  Level Denver Center
Mon 03:44:13 AM 44.3011 -104.6650 111° Southeast 460 529 35,000  Level Denver Center
Mon 03:45:14 AM 44.2589 -104.5053 110° East 459 528 35,000  Level Denver Center
Mon 03:46:14 AM 44.2069 -104.3208 111° Southeast 459 528 35,000  Level Denver Center
Mon 03:47:15 AM 44.1631 -104.1600 111° Southeast 462 532 35,000  Level Denver Center
Mon 03:48:15 AM 44.1175 -104.0000 112° Southeast 463 533 35,000  Level Denver Center
Mon 03:49:15 AM 44.0719 -103.8375 111° Southeast 470 541 35,000  Level Denver Center
Mon 03:50:16 AM 44.0206 -103.6500 111° Southeast 465 535 35,000  Level Denver Center
Mon 03:51:16 AM 43.9731 -103.4856 112° Southeast 476 548 35,000  Level Denver Center
Mon 03:52:17 AM 43.9275 -103.3244 111° Southeast 473 544 35,000  Level Denver Center
Mon 03:53:17 AM 43.8731 -103.1367 112° Southeast 470 541 35,000  Level Denver Center
Mon 03:54:18 AM 43.8264 -102.9744 112° Southeast 471 542 35,000  Level Denver Center
Mon 03:55:18 AM 43.7792 -102.8128 112° Southeast 473 544 35,000  Level Denver Center
Mon 03:56:18 AM 43.7311 -102.6503 112° Southeast 475 547 35,000  Level Denver Center
Mon 03:57:19 AM 43.6747 -102.4631 113° Southeast 473 544 35,000  Level Denver Center
Mon 03:58:19 AM 43.6286 -102.3028 112° Southeast 471 542 35,000  Level Denver Center
Mon 03:59:32 AM 43.5797 -102.1425 113° Southeast 473 544 35,000  Level Denver Center
Mon 04:00:32 AM 43.5161 -101.9342 113° Southeast 474 545 35,000  Level Denver Center
Mon 04:01:33 AM 43.4653 -101.7661 113° Southeast 476 548 35,000  Level Denver Center
Mon 04:02:33 AM 43.4142 -101.5969 113° Southeast 480 552 35,000  Level Denver Center
Mon 04:03:34 AM 43.3617 -101.4292 113° Southeast 480 552 35,000 -99 Level Denver Center
Mon 04:04:34 AM 43.3103 -101.2617 113° Southeast 478 550 34,800 -600 Descending Denver Center
Mon 04:05:34 AM 43.2569 -101.0919 113° Southeast 484 557 33,800 -893 Descending Denver Center
Mon 04:06:35 AM 43.2031 -100.9203 113° Southeast 488 562 33,000 -397 Descending Denver Center
Mon 04:07:35 AM 43.1475 -100.7436 113° Southeast 498 573 33,000  Level Denver Center
Mon 04:08:36 AM 43.0928 -100.5706 113° Southeast 500 575 33,000  Level Denver Center
Mon 04:09:35 AM 43.0375 -100.3992 114° Southeast 498 573 33,000  Level Minneapolis Center
Mon 04:10:36 AM 42.9814 -100.2231 113° Southeast 502 578 33,000  Level Denver Center
Mon 04:11:37 AM 42.9253 -100.0519 114° Southeast 498 573 33,000  Level Denver Center
Mon 04:12:37 AM 42.8686 -99.8781 114° Southeast 502 578 33,000  Level Denver Center
Mon 04:13:38 AM 42.8119 -99.7039 114° Southeast 504 580 33,000  Level Denver Center
Mon 04:14:36 AM 42.7506 -99.5189 114° Southeast 500 575 33,000  Level Minneapolis Center
Mon 04:15:36 AM 42.6925 -99.3475 115° Southeast 499 574 33,000  Level Minneapolis Center
Mon 04:16:36 AM 42.6358 -99.1739 114° Southeast 501 577 33,000  Level Minneapolis Center
Mon 04:17:37 AM 42.5781 -99.0025 115° Southeast 499 574 33,000  Level Minneapolis Center
Mon 04:18:37 AM 42.5194 -98.8314 115° Southeast 499 574 33,000  Level Minneapolis Center
Mon 04:19:37 AM 42.4683 -98.6572 112° Southeast 496 571 33,000  Level Minneapolis Center
Mon 04:20:38 AM 42.4483 -98.4717 98° East 495 570 33,000  Level Minneapolis Center
Mon 04:21:38 AM 42.4286 -98.2858 98° East 496 571 33,000  Level Minneapolis Center
Mon 04:22:38 AM 42.4094 -98.1003 98° East 497 572 33,000  Level Minneapolis Center
Mon 04:23:39 AM 42.3892 -97.9164 98° East 495 570 33,000  Level Minneapolis Center
Mon 04:24:39 AM 42.3708 -97.7464 98° East 491 565 33,000  Level Minneapolis Center
Mon 04:25:39 AM 42.3500 -97.5653 99° East 488 562 33,000 545 Level Minneapolis Center
Mon 04:26:40 AM 42.3303 -97.3833 98° East 489 563 34,100 992 Climbing Minneapolis Center
Mon 04:27:40 AM 42.3094 -97.2081 99° East 479 551 35,000 450 Climbing Minneapolis Center
Mon 04:28:40 AM 42.2894 -97.0317 99° East 475 547 35,000  Level Minneapolis Center
Mon 04:29:40 AM 42.2686 -96.8564 99° East 473 544 35,000  Level Minneapolis Center
Mon 04:30:41 AM 42.2475 -96.6814 99° East 473 544 35,000  Level Minneapolis Center
Mon 04:31:41 AM 42.2272 -96.5069 99° East 471 542 35,000  Level Minneapolis Center
Mon 04:32:41 AM 42.2056 -96.3328 99° East 470 541 35,000  Level Minneapolis Center
Mon 04:33:54 AM 42.1836 -96.1606 100° East 467 537 35,000  Level Minneapolis Center
Mon 04:34:54 AM 42.1586 -95.9572 99° East 459 528 35,000  Level Minneapolis Center
Mon 04:35:54 AM 42.1369 -95.7906 100° East 452 520 35,000  Level Minneapolis Center
Mon 04:36:55 AM 42.1158 -95.6306 100° East 440 506 35,000  Level Minneapolis Center
Mon 04:37:55 AM 42.0956 -95.4719 100° East 431 496 35,000  Level Minneapolis Center
Mon 04:38:55 AM 42.0733 -95.3089 100° East 437 503 35,000  Level Minneapolis Center
Mon 04:39:56 AM 42.0514 -95.1464 100° East 439 505 35,000  Level Minneapolis Center
Mon 04:40:56 AM 42.0297 -94.9833 100° East 442 509 35,000  Level Minneapolis Center
Mon 04:41:56 AM 42.0067 -94.8172 101° East 450 518 35,000  Level Minneapolis Center
Mon 04:42:57 AM 41.9842 -94.6519 100° East 448 516 35,000  Level Minneapolis Center
Mon 04:43:57 AM 41.9603 -94.4858 101° East 451 519 35,000  Level Minneapolis Center
Mon 04:44:57 AM 41.9369 -94.3200 101° East 451 519 35,000  Level Minneapolis Center
Mon 04:45:58 AM 41.9122 -94.1550 101° East 450 518 35,000  Level Minneapolis Center
Mon 04:46:58 AM 41.8897 -93.9906 100° East 448 516 35,000  Level Minneapolis Center
Mon 04:47:58 AM 41.8653 -93.8219 101° East 448 516 35,000  Level Minneapolis Center
Mon 04:48:59 AM 41.8408 -93.6594 101° East 447 514 35,000  Level Minneapolis Center
Mon 04:49:59 AM 41.8183 -93.4972 100° East 445 512 35,000  Level Minneapolis Center
Mon 04:50:59 AM 41.7931 -93.3353 102° East 446 513 35,000  Level Minneapolis Center
Mon 04:52:00 AM 41.7689 -93.1747 101° East 444 511 35,000  Level Minneapolis Center
Mon 04:53:00 AM 41.7444 -93.0161 102° East 441 507 35,000  Level Minneapolis Center
Mon 04:54:01 AM 41.7194 -92.8564 102° East 440 506 35,000  Level Minneapolis Center
Mon 04:55:01 AM 41.6956 -92.6975 101° East 439 505 35,000  Level Minneapolis Center
Mon 04:55:42 AM 41.6756 -92.5706 102° East 439 505 35,000  Level Chicago Center
Mon 04:56:42 AM 41.6506 -92.4139 102° East 437 503 35,000  Level Chicago Center
Mon 04:57:43 AM 41.6242 -92.2547 102° East 442 509 35,000  Level Chicago Center
Mon 04:58:43 AM 41.5989 -92.0983 102° East 440 506 35,000  Level Chicago Center
Mon 04:59:43 AM 41.5733 -91.9397 102° East 441 507 35,000  Level Chicago Center
Mon 05:00:44 AM 41.5472 -91.7839 103° East 438 504 35,000  Level Chicago Center
Mon 05:01:44 AM 41.5219 -91.6264 102° East 438 504 35,000  Level Chicago Center
Mon 05:02:44 AM 41.4947 -91.4692 103° East 440 506 35,000  Level Chicago Center
Mon 05:03:44 AM 41.4658 -91.3017 103° East 438 504 35,000  Level Chicago Center
Mon 05:04:45 AM 41.4383 -91.1414 103° East 442 509 35,000  Level Chicago Center
Mon 05:05:45 AM 41.4108 -90.9847 103° East 437 503 35,000  Level Chicago Center
Mon 05:06:45 AM 41.3850 -90.8275 102° East 435 501 35,000  Level Chicago Center
Mon 05:07:46 AM 41.3564 -90.6722 104° East 432 497 35,000  Level Chicago Center
Mon 05:08:46 AM 41.3292 -90.5181 103° East 429 494 35,000  Level Chicago Center
Mon 05:09:46 AM 41.3017 -90.3642 103° East 426 490 35,000  Level Chicago Center
Mon 05:10:47 AM 41.2747 -90.2122 103° East 422 486 35,000  Level Chicago Center
Mon 05:11:47 AM 41.2467 -90.0606 104° East 421 484 35,000  Level Chicago Center
Mon 05:12:47 AM 41.2203 -89.9097 103° East 417 480 35,000  Level Chicago Center
Mon 05:13:48 AM 41.1922 -89.7603 104° East 415 478 35,000  Level Chicago Center
Mon 05:14:48 AM 41.1642 -89.6097 104° East 417 480 35,000  Level Chicago Center
Mon 05:15:48 AM 41.1406 -89.4586 102° East 417 480 35,000  Level Chicago Center
Mon 05:16:49 AM 41.1217 -89.3064 99° East 418 481 35,000  Level Chicago Center
Mon 05:17:49 AM 41.1022 -89.1436 99° East 416 479 35,000  Level Chicago Center
Mon 05:18:49 AM 41.0839 -88.9931 99° East 417 480 35,000  Level Chicago Center
Mon 05:19:50 AM 41.0639 -88.8422 100° East 420 483 35,000  Level Chicago Center
Mon 05:20:50 AM 41.0450 -88.6922 99° East 417 480 35,000  Level Chicago Center
Mon 05:21:50 AM 41.0258 -88.5425 100° East 417 480 35,000  Level Chicago Center
Mon 05:22:51 AM 41.0072 -88.3939 99° East 414 476 35,000  Level Chicago Center
Mon 05:23:51 AM 40.9875 -88.2442 100° East 416 479 35,000  Level Chicago Center
Mon 05:24:51 AM 40.9686 -88.0931 99° East 422 486 35,000  Level Chicago Center
Mon 05:25:52 AM 40.9486 -87.9436 100° East 418 481 35,000  Level Chicago Center
Mon 05:26:52 AM 40.9283 -87.7944 100° East 418 481 35,000  Level Chicago Center
Mon 05:27:52 AM 40.9089 -87.6444 100° East 417 480 35,000  Level Chicago Center
Mon 05:28:53 AM 40.8842 -87.4653 100° East 416 479 35,000  Level Chicago Center
Mon 05:29:53 AM 40.8625 -87.3175 101° East 413 475 35,000  Level Chicago Center
Mon 05:30:54 AM 40.8406 -87.1689 101° East 415 478 35,000  Level Chicago Center
Mon 05:31:54 AM 40.8197 -87.0208 100° East 414 476 35,000  Level Chicago Center
Mon 05:32:54 AM 40.7989 -86.8736 101° East 412 474 35,000  Level Chicago Center
Mon 05:33:55 AM 40.7783 -86.7267 100° East 412 474 35,000  Level Chicago Center
Mon 05:34:55 AM 40.7556 -86.5764 101° East 418 481 35,000  Level Chicago Center
Mon 05:35:55 AM 40.7339 -86.4278 101° East 416 479 35,000  Level Chicago Center
Mon 05:36:56 AM 40.7114 -86.2800 101° East 415 478 35,000  Level Chicago Center
Mon 05:37:56 AM 40.6892 -86.1317 101° East 415 478 35,000  Level Chicago Center
Mon 05:38:57 AM 40.6667 -85.9728 101° East 410 472 35,000  Level Chicago Center
Mon 05:39:57 AM 40.6436 -85.8258 102° East 411 473 35,000  Level Chicago Center
Mon 05:40:57 AM 40.6214 -85.6778 101° East 412 474 35,000  Level Chicago Center
Mon 05:41:58 AM 40.5986 -85.5311 102° East 411 473 35,000  Level Chicago Center
Mon 05:42:58 AM 40.5753 -85.3847 102° East 411 473 35,000  Level Chicago Center
Mon 05:43:59 AM 40.5531 -85.2361 101° East 413 475 35,000  Level Chicago Center
Mon 05:44:59 AM 40.5294 -85.0900 102° East 411 473 35,000  Level Chicago Center
Mon 05:45:59 AM 40.5056 -84.9422 102° East 414 476 35,000 -68 Level Chicago Center
Mon 05:46:27 AM 40.4928 -84.8797 105° East 411 473 34,900  Descending Indianapolis Center
Mon 05:47:27 AM 40.4692 -84.7306 102° East 414 476 35,000 50 Climbing Indianapolis Center
Mon 05:48:28 AM 40.4442 -84.5811 102° East 415 478 35,000  Level Indianapolis Center
Mon 05:49:28 AM 40.4200 -84.4325 102° East 412 474 35,000  Level Indianapolis Center
Mon 05:50:28 AM 40.3953 -84.2842 102° East 413 475 35,000  Level Indianapolis Center
Mon 05:51:28 AM 40.3700 -84.1347 102° East 416 479 35,000  Level Indianapolis Center
Mon 05:52:28 AM 40.3450 -83.9872 102° East 412 474 35,000  Level Indianapolis Center
Mon 05:53:29 AM 40.3183 -83.8389 103° East 413 475 35,000  Level Indianapolis Center
Mon 05:54:29 AM 40.2931 -83.6894 102° East 414 476 35,000 -50 Level Indianapolis Center
Mon 05:55:29 AM 40.2669 -83.5408 103° East 414 476 34,900  Descending Indianapolis Center
Mon 05:56:29 AM 40.2406 -83.3903 103° East 418 481 35,000 50 Climbing Indianapolis Center
Mon 05:57:30 AM 40.2139 -83.2403 103° East 418 481 35,000 -50 Level Indianapolis Center
Mon 05:58:30 AM 40.1914 -83.1136 103° East 420 483 34,900  Descending Indianapolis Center
Mon 05:59:30 AM 40.1639 -82.9625 103° East 422 486 35,000 50 Climbing Indianapolis Center
Mon 06:00:30 AM 40.1367 -82.8111 103° East 423 487 35,000  Level Indianapolis Center
Mon 06:01:31 AM 40.1092 -82.6606 103° East 421 484 35,000  Level Indianapolis Center
Mon 06:02:31 AM 40.0811 -82.5103 104° East 423 487 35,000  Level Indianapolis Center
Mon 06:03:31 AM 40.0531 -82.3597 104° East 422 486 35,000 -50 Level Indianapolis Center
Mon 06:04:32 AM 40.0250 -82.2092 104° East 424 488 34,900  Descending Indianapolis Center
Mon 06:05:32 AM 39.9953 -82.0558 104° East 431 496 35,000  Climbing Indianapolis Center
Mon 06:06:32 AM 39.9681 -81.9036 103° East 429 494 34,900  Descending Indianapolis Center
Mon 06:07:32 AM 39.9378 -81.7486 104° East 434 499 35,000 50 Climbing Indianapolis Center
Mon 06:08:33 AM 39.9072 -81.5925 104° East 439 505 35,000  Level Indianapolis Center
Mon 06:09:33 AM 39.8778 -81.4372 104° East 439 505 35,000  Level Indianapolis Center
Mon 06:09:49 AM 39.8661 -81.4081 118° Southeast 438 504 35,000 -474 Level Cleveland Center
Mon 06:10:49 AM 39.8442 -81.2564 101° East 433 498 34,400 -807 Descending Cleveland Center
Mon 06:11:48 AM 39.8136 -81.1019 104° East 433 498 33,400 -1,050 Descending Cleveland Center
Mon 06:12:49 AM 39.7831 -80.9531 105° East 428 493 32,300 -1,033 Descending Cleveland Center
Mon 06:13:50 AM 39.7542 -80.8044 104° East 428 493 31,300 -992 Descending Cleveland Center
Mon 06:14:50 AM 39.7253 -80.6614 105° East 414 476 30,300 -940 Descending Cleveland Center
Mon 06:16:36 AM 39.6731 -80.4192 106° East 406 467 28,700 -930 Descending Indianapolis Center
Mon 06:17:12 AM 39.6581 -80.3303 102° East 402 463 28,100 -1,000 Descending Washington Center
Mon 06:18:12 AM 39.6281 -80.1883 105° East 402 463 27,100 -541 Descending Washington Center
Mon 06:19:14 AM 39.6019 -80.0544 104° East 402 463 27,000 -50 Descending Washington Center
Mon 06:20:13 AM 39.5714 -79.9181 106° East 397 457 27,000  Level Washington Center
Mon 06:21:12 AM 39.5450 -79.7819 104° East 397 457 27,000  Level Washington Center
Mon 06:22:12 AM 39.5189 -79.6297 102° East 409 471 27,000  Level Washington Center
Mon 06:23:13 AM 39.4908 -79.4694 103° East 430 495 27,000 -397 Level Washington Center
Mon 06:24:13 AM 39.4603 -79.3119 104° East 444 511 26,200 -1,100 Descending Washington Center
Mon 06:25:13 AM 39.4336 -79.1653 103° East 436 502 24,800 -1,750 Descending Washington Center
Mon 06:26:13 AM 39.4103 -79.0300 103° East 408 470 22,700 -2,033 Descending Washington Center
Mon 06:27:14 AM 39.3850 -78.8997 104° East 383 441 20,700 -1,983 Descending Washington Center
Mon 06:28:14 AM 39.3611 -78.7725 104° East 369 425 18,700 -1,900 Descending Washington Center
Mon 06:29:14 AM 39.3394 -78.6508 103° East 357 411 16,900 -1,900 Descending Washington Center
Mon 06:30:14 AM 39.3175 -78.5211 102° East 352 405 14,900 -1,966 Descending Washington Center
Mon 06:31:13 AM 39.2933 -78.4047 105° East 339 390 13,000 -1,800 Descending Washington Center
Mon 06:32:14 AM 39.2558 -78.3042 116° Southeast 327 376 11,300 -1,091 Descending Washington Center
Mon 06:33:14 AM 39.2078 -78.2194 126° Southeast 307 353 10,800 -814 Descending Washington Center
Mon 06:34:12 AM 39.1678 -78.1403 123° Southeast 282 325 9,700 -1,261 Descending Washington Center
Mon 06:35:13 AM 39.1278 -78.0667 125° Southeast 264 304 8,300 -1,328 Descending Washington Center
Mon 06:36:14 AM 39.0875 -77.9903 124° Southeast 264 304 7,000 -645 Descending Washington Center
Mon 06:37:14 AM 39.0472 -77.9169 125° Southeast 264 304 7,000 -103 Level Washington Center
Mon 06:38:11 AM 39.0092 -77.8408 123° Southeast 259 298 6,800 -508 Descending Washington Center
Mon 06:39:12 AM 38.9689 -77.7675 125° Southeast 259 298 6,000 -279 Descending Washington Center
Mon 06:41:03 AM 38.9333 -77.6167 107° East 226 260 6,000  Level Potomac TRACON
Mon 06:41:57 AM 38.8833 -77.5833 153° Southeast 219 252 6,000 -495 Level Potomac TRACON
Mon 06:42:52 AM 38.8333 -77.5667 165° South 216 249 5,100 -1,148 Descending Potomac TRACON
Mon 06:43:52 AM 38.7833 -77.5500 165° South 221 254 3,800 -1,350 Descending Potomac TRACON
Mon 06:44:52 AM 38.7667 -77.4833 108° East 202 232 2,400 -947 Descending Potomac TRACON
Mon 06:45:46 AM 38.7833 -77.4333 67° East 211 243 2,000 -211 Descending Potomac TRACON
Mon 06:46:46 AM 38.8333 -77.4333 360° North 188 216 2,000 -400 Level Potomac TRACON
Mon 06:47:46 AM 38.8833 -77.4333 360° North 166 191 1,200 -800 Descending Potomac TRACON

Login

Don't have an account? Register now (free) for customized features, flight alerts, and more!